createdAt,value
2017-08-18T00:02:24.367Z,9.63
2017-08-18T00:04:52.774Z,9.23
2017-08-18T00:07:20.323Z,9.00
2017-08-18T00:09:47.868Z,9.60
2017-08-18T00:12:15.427Z,8.90
2017-08-18T00:14:42.972Z,9.73
2017-08-18T00:17:12.034Z,9.40
2017-08-18T00:19:39.561Z,10.10
2017-08-18T00:22:08.318Z,9.67
2017-08-18T00:24:37.962Z,9.20
2017-08-18T00:27:06.410Z,9.23
2017-08-18T00:29:34.709Z,9.40
2017-08-18T00:32:02.286Z,9.90
2017-08-18T00:34:31.278Z,9.90
2017-08-18T00:36:58.830Z,9.77
2017-08-18T00:39:28.647Z,9.30
2017-08-18T00:41:56.262Z,10.00
2017-08-18T00:44:23.899Z,10.10
2017-08-18T00:46:53.043Z,10.07
2017-08-18T00:49:23.064Z,9.60
2017-08-18T00:51:50.602Z,10.17
2017-08-18T00:54:18.142Z,9.07
2017-08-18T00:56:45.804Z,9.83
2017-08-18T00:59:14.108Z,9.83
2017-08-18T01:01:42.432Z,8.67
2017-08-18T01:04:10.411Z,9.77
2017-08-18T01:06:39.359Z,9.20
2017-08-18T01:09:08.384Z,9.10
2017-08-18T01:11:35.997Z,9.63
2017-08-18T01:14:04.306Z,8.77
2017-08-18T01:16:31.890Z,8.00
2017-08-18T01:18:59.465Z,8.73
2017-08-18T01:21:27.816Z,9.67
2017-08-18T01:23:55.389Z,9.47
2017-08-18T01:26:22.944Z,8.60
2017-08-18T01:28:50.506Z,9.50
2017-08-18T01:31:18.060Z,9.63
2017-08-18T01:33:46.417Z,9.70
2017-08-18T01:36:13.965Z,8.43
2017-08-18T01:38:41.512Z,8.70
2017-08-18T01:41:09.074Z,9.60
2017-08-18T01:43:36.629Z,9.10
2017-08-18T01:46:04.212Z,9.60
2017-08-18T01:48:31.767Z,9.60
2017-08-18T01:50:59.352Z,9.80
2017-08-18T01:53:26.890Z,9.47
2017-08-18T01:55:54.443Z,9.70
2017-08-18T01:58:23.805Z,9.90
2017-08-18T02:00:52.351Z,9.40
2017-08-18T02:03:19.911Z,9.93
2017-08-18T02:05:47.454Z,9.53
2017-08-18T02:08:15.054Z,9.67
2017-08-18T02:10:42.614Z,9.70
2017-08-18T02:13:10.917Z,10.80
2017-08-18T02:15:39.322Z,11.20
2017-08-18T02:18:06.909Z,11.00
2017-08-18T02:20:34.460Z,10.63
2017-08-18T02:23:02.020Z,9.73
2017-08-18T02:25:29.569Z,8.93
2017-08-18T02:27:57.135Z,9.30
2017-08-18T02:30:25.406Z,10.80
2017-08-18T02:32:52.950Z,9.63
2017-08-18T02:35:21.396Z,9.90
2017-08-18T02:37:49.757Z,9.43
2017-08-18T02:40:17.699Z,9.50
2017-08-18T02:42:45.264Z,10.03
2017-08-18T02:45:12.808Z,10.20
2017-08-18T02:47:40.387Z,10.10
2017-08-18T02:50:07.965Z,9.77
2017-08-18T02:52:35.554Z,10.07
2017-08-18T02:55:03.096Z,10.13
2017-08-18T02:57:30.648Z,9.63
2017-08-18T02:59:58.216Z,9.57
2017-08-18T03:02:25.803Z,9.53
2017-08-18T03:04:53.364Z,10.30
2017-08-18T03:07:20.897Z,10.97
2017-08-18T03:09:48.481Z,9.67
2017-08-18T03:12:16.043Z,9.50
2017-08-18T03:14:43.626Z,9.23
2017-08-18T03:17:11.199Z,10.27
2017-08-18T03:19:38.770Z,10.40
2017-08-18T03:22:06.340Z,10.33
2017-08-18T03:24:33.894Z,10.30
2017-08-18T03:27:01.457Z,9.90
2017-08-18T03:29:29.079Z,10.57
2017-08-18T03:31:56.646Z,9.70
2017-08-18T03:34:24.225Z,9.57
2017-08-18T03:36:51.778Z,9.80
2017-08-18T03:39:19.336Z,9.90
2017-08-18T03:41:46.884Z,9.17
2017-08-18T03:44:15.228Z,10.77
2017-08-18T03:46:42.796Z,10.13
2017-08-18T03:49:10.361Z,9.83
2017-08-18T03:52:07.723Z,10.00
2017-08-18T03:54:35.264Z,9.47
2017-08-18T03:57:03.548Z,9.97
2017-08-18T03:59:31.101Z,9.20
2017-08-18T04:01:59.390Z,9.67
2017-08-18T04:04:26.933Z,9.43
2017-08-18T04:06:55.235Z,9.80
2017-08-18T04:09:22.749Z,10.43
2017-08-18T04:11:50.325Z,9.03
2017-08-18T04:14:18.633Z,10.13
2017-08-18T04:16:46.194Z,10.33
2017-08-18T04:19:13.716Z,9.63
2017-08-18T04:21:42.040Z,10.40
2017-08-18T04:24:09.560Z,9.87
2017-08-18T04:26:37.077Z,10.13
2017-08-18T04:29:04.617Z,9.83
2017-08-18T04:31:32.134Z,9.67
2017-08-18T04:34:00.787Z,9.93
2017-08-18T04:36:28.300Z,9.27
2017-08-18T04:38:55.840Z,9.50
2017-08-18T04:41:24.121Z,9.57
2017-08-18T04:43:51.666Z,9.20
2017-08-18T04:46:19.967Z,8.93
2017-08-18T04:48:47.485Z,9.60
2017-08-18T04:51:15.033Z,9.63
2017-08-18T04:53:42.566Z,10.23
2017-08-18T04:56:10.099Z,8.70
2017-08-18T04:58:37.624Z,10.33
2017-08-18T05:01:05.152Z,8.13
2017-08-18T05:03:32.672Z,8.97
2017-08-18T05:06:00.221Z,9.53
2017-08-18T05:08:28.520Z,10.27
2017-08-18T05:10:56.053Z,9.27
2017-08-18T05:13:24.366Z,9.63
2017-08-18T05:15:51.896Z,9.40
2017-08-18T05:18:19.432Z,9.33
2017-08-18T05:20:46.947Z,10.47
2017-08-18T05:23:14.477Z,9.40
2017-08-18T05:25:41.996Z,10.60
2017-08-18T05:28:09.519Z,10.43
2017-08-18T05:30:37.054Z,10.30
2017-08-18T05:33:04.629Z,10.43
2017-08-18T05:35:32.185Z,10.60
2017-08-18T05:37:59.709Z,12.40
2017-08-18T05:40:28.531Z,12.60
2017-08-18T05:45:34.858Z,10.40
2017-08-18T05:48:02.369Z,12.03
2017-08-18T05:50:29.910Z,11.90
2017-08-18T05:52:57.468Z,11.70
2017-08-18T05:55:25.753Z,9.97
2017-08-18T05:57:53.298Z,10.27
2017-08-18T06:00:21.612Z,11.27
2017-08-18T06:02:49.145Z,9.87
2017-08-18T06:05:17.440Z,10.80
2017-08-18T06:07:44.998Z,10.80
2017-08-18T06:10:12.739Z,10.40
2017-08-18T06:12:41.064Z,10.43
2017-08-18T06:15:08.711Z,9.93
2017-08-18T06:17:36.241Z,10.03
2017-08-18T06:20:03.781Z,9.40
2017-08-18T06:22:31.313Z,10.60
2017-08-18T06:24:58.852Z,9.63
2017-08-18T06:27:26.372Z,10.37
2017-08-18T06:29:53.941Z,9.70
2017-08-18T06:32:21.464Z,11.13
2017-08-18T06:34:48.966Z,9.90
2017-08-18T06:37:16.515Z,10.40
2017-08-18T06:39:44.079Z,11.37
2017-08-18T06:42:11.615Z,9.50
2017-08-18T06:44:40.008Z,11.03
2017-08-18T06:47:07.548Z,10.47
2017-08-18T06:49:35.057Z,10.97
2017-08-18T06:52:02.604Z,11.67
2017-08-18T06:54:31.054Z,11.23
2017-08-18T06:56:58.584Z,11.90
2017-08-18T06:59:26.138Z,11.43
2017-08-18T07:01:53.662Z,12.40
2017-08-18T07:04:21.206Z,12.90
2017-08-18T07:06:50.746Z,11.90
2017-08-18T07:09:18.286Z,11.97
2017-08-18T07:11:45.816Z,11.63
2017-08-18T07:14:14.645Z,13.57
2017-08-18T07:16:42.202Z,12.80
2017-08-18T07:19:09.724Z,12.97
2017-08-18T07:21:38.000Z,12.37
2017-08-18T07:24:06.310Z,12.77
2017-08-18T07:26:33.830Z,14.83
2017-08-18T07:29:01.384Z,12.97
2017-08-18T07:31:29.674Z,13.50
2017-08-18T07:33:57.259Z,12.80
2017-08-18T07:36:24.812Z,13.93
2017-08-18T07:38:52.350Z,13.17
2017-08-18T07:41:20.656Z,12.27
2017-08-18T07:43:48.184Z,12.97
2017-08-18T07:46:15.692Z,13.33
2017-08-18T07:48:43.237Z,14.00
2017-08-18T07:51:10.769Z,12.53
2017-08-18T07:53:38.356Z,14.13
2017-08-18T07:56:05.868Z,13.00
2017-08-18T07:58:34.156Z,13.53
2017-08-18T08:01:05.144Z,14.43
2017-08-18T08:03:32.663Z,13.23
2017-08-18T08:06:00.217Z,13.60
2017-08-18T08:08:28.688Z,11.50
2017-08-18T08:10:56.249Z,13.47
2017-08-18T08:13:25.145Z,13.07
2017-08-18T08:15:52.684Z,13.73
2017-08-18T08:18:20.198Z,13.10
2017-08-18T08:20:47.739Z,13.27
2017-08-18T08:23:15.267Z,14.07
2017-08-18T08:25:43.577Z,13.67
2017-08-18T08:28:11.359Z,12.60
2017-08-18T08:30:38.879Z,13.90
2017-08-18T08:33:07.183Z,14.73
2017-08-18T08:35:34.692Z,14.50
2017-08-18T08:38:02.223Z,14.10
2017-08-18T08:40:29.735Z,12.93
2017-08-18T08:42:58.041Z,15.30
2017-08-18T08:45:25.672Z,15.77
2017-08-18T08:47:53.976Z,14.47
2017-08-18T08:50:21.509Z,17.40
2017-08-18T08:52:49.034Z,15.77
2017-08-18T08:55:16.573Z,15.40
2017-08-18T08:57:44.085Z,16.47
2017-08-18T09:00:12.391Z,16.33
2017-08-18T09:02:39.908Z,15.23
2017-08-18T09:05:08.206Z,14.80
2017-08-18T09:07:35.733Z,14.20
2017-08-18T09:10:03.308Z,14.37
2017-08-18T09:12:30.904Z,15.40
2017-08-18T09:14:58.413Z,14.93
2017-08-18T09:17:25.940Z,15.83
2017-08-18T09:19:53.455Z,13.50
2017-08-18T09:22:20.985Z,12.40
2017-08-18T09:24:48.541Z,14.60
2017-08-18T09:27:16.052Z,14.80
2017-08-18T09:29:43.572Z,14.13
2017-08-18T09:32:11.908Z,14.90
2017-08-18T09:34:39.420Z,14.03
2017-08-18T09:37:06.959Z,14.80
2017-08-18T09:39:34.492Z,15.50
2017-08-18T09:42:02.026Z,15.80
2017-08-18T09:44:29.550Z,14.40
2017-08-18T09:46:57.112Z,12.87
2017-08-18T09:49:36.342Z,15.00
2017-08-18T09:52:15.793Z,14.87
2017-08-18T09:54:54.996Z,15.37
2017-08-18T09:57:34.187Z,14.60
2017-08-18T10:00:01.722Z,12.60
2017-08-18T10:02:29.279Z,15.70
2017-08-18T10:04:57.382Z,15.60
2017-08-18T10:07:24.950Z,15.17
2017-08-18T10:09:52.507Z,16.17
2017-08-18T10:12:20.011Z,14.47
2017-08-18T10:14:47.549Z,12.27
2017-08-18T10:17:15.084Z,16.33
2017-08-18T10:19:42.625Z,12.67
2017-08-18T10:22:10.832Z,12.60
2017-08-18T10:24:38.359Z,10.60
2017-08-18T10:27:05.914Z,11.40
2017-08-18T10:29:33.459Z,13.40
2017-08-18T10:32:00.973Z,16.27
2017-08-18T10:34:28.488Z,16.00
2017-08-18T10:36:56.032Z,16.53
2017-08-18T10:39:23.557Z,15.63
2017-08-18T10:41:51.091Z,12.70
2017-08-18T10:44:18.612Z,11.90
2017-08-18T10:46:46.214Z,13.57
2017-08-18T10:49:13.747Z,14.03
2017-08-18T10:51:41.305Z,12.30
2017-08-18T10:54:08.851Z,13.87
2017-08-18T10:56:36.393Z,12.63
2017-08-18T10:59:03.937Z,9.77
2017-08-18T11:01:31.473Z,11.13
2017-08-18T11:03:58.988Z,8.40
2017-08-18T11:06:26.527Z,10.87
2017-08-18T11:08:54.805Z,10.20
2017-08-18T11:11:22.332Z,11.57
2017-08-18T11:13:49.878Z,11.00
2017-08-18T11:16:17.397Z,11.80
2017-08-18T11:18:44.958Z,11.10
2017-08-18T11:21:12.477Z,11.00
2017-08-18T11:23:40.012Z,11.10
2017-08-18T11:26:07.557Z,12.10
2017-08-18T11:28:35.067Z,10.40
2017-08-18T11:31:03.357Z,10.70
2017-08-18T11:33:30.920Z,10.63
2017-08-18T11:35:58.458Z,9.73
2017-08-18T11:38:26.766Z,8.30
2017-08-18T11:40:54.372Z,7.60
2017-08-18T11:43:21.914Z,8.63
2017-08-18T11:45:49.426Z,7.80
2017-08-18T11:48:16.932Z,7.50
2017-08-18T11:50:44.468Z,8.73
2017-08-18T11:53:11.992Z,7.97
2017-08-18T11:55:39.559Z,7.80
2017-08-18T11:58:07.092Z,6.97
2017-08-18T12:00:34.656Z,6.90
2017-08-18T12:03:02.956Z,6.90
2017-08-18T12:05:30.489Z,6.13
2017-08-18T12:07:58.068Z,7.00
2017-08-18T12:10:25.610Z,7.83
2017-08-18T12:12:53.879Z,6.73
2017-08-18T12:15:21.400Z,7.80
2017-08-18T12:17:48.909Z,6.17
2017-08-18T12:20:17.211Z,6.70
2017-08-18T12:22:44.739Z,6.23
2017-08-18T12:25:12.287Z,5.80
2017-08-18T12:27:39.803Z,6.20
2017-08-18T12:30:07.325Z,6.43
2017-08-18T12:32:35.616Z,5.80
2017-08-18T12:35:03.204Z,6.37
2017-08-18T12:37:30.723Z,6.17
2017-08-18T12:39:59.001Z,6.03
2017-08-18T12:42:26.532Z,5.83
2017-08-18T12:44:54.055Z,5.60
2017-08-18T12:47:21.621Z,5.40
2017-08-18T12:49:49.128Z,4.53
2017-08-18T12:52:17.485Z,4.47
2017-08-18T12:54:44.989Z,5.20
2017-08-18T12:57:12.522Z,5.13
2017-08-18T12:59:40.799Z,5.50
2017-08-18T13:02:09.116Z,5.60
2017-08-18T13:04:36.633Z,5.80
2017-08-18T13:07:04.909Z,5.00
2017-08-18T13:09:33.206Z,5.10
2017-08-18T13:12:00.724Z,4.57
2017-08-18T13:14:28.269Z,5.57
2017-08-18T13:16:55.793Z,4.60
2017-08-18T13:19:23.316Z,4.17
2017-08-18T13:21:51.644Z,5.07
2017-08-18T13:24:19.192Z,4.77
2017-08-18T13:26:46.764Z,4.80
2017-08-18T13:29:14.414Z,4.40
2017-08-18T13:31:41.930Z,4.27
2017-08-18T13:34:10.205Z,4.37
2017-08-18T13:36:38.504Z,4.40
2017-08-18T13:39:06.307Z,4.67
2017-08-18T13:41:34.657Z,4.80
2017-08-18T13:44:02.224Z,4.93
2017-08-18T13:46:30.592Z,4.80
2017-08-18T13:48:58.095Z,4.60
2017-08-18T13:51:25.620Z,4.90
2017-08-18T13:53:53.133Z,4.50
2017-08-18T13:56:21.428Z,4.43
2017-08-18T13:58:48.973Z,4.53
2017-08-18T14:01:16.594Z,4.60
2017-08-18T14:03:44.092Z,4.80
2017-08-18T14:06:12.368Z,4.53
2017-08-18T14:08:39.892Z,4.43
2017-08-18T14:11:07.404Z,4.90
2017-08-18T14:13:34.953Z,4.77
2017-08-18T14:16:03.237Z,4.57
2017-08-18T14:18:31.535Z,4.77
2017-08-18T14:20:59.618Z,5.03
2017-08-18T14:23:27.164Z,5.23
2017-08-18T14:26:00.277Z,4.90
2017-08-18T14:28:27.825Z,4.17
2017-08-18T14:30:55.338Z,4.90
2017-08-18T14:33:23.628Z,5.10
2017-08-18T14:35:51.142Z,5.10
2017-08-18T14:38:18.682Z,5.23
2017-08-18T14:40:46.212Z,4.80
2017-08-18T14:43:13.815Z,4.40
2017-08-18T14:45:41.346Z,5.30
2017-08-18T14:48:08.867Z,5.20
2017-08-18T14:50:37.160Z,4.63
2017-08-18T14:53:04.678Z,4.70
2017-08-18T14:55:32.237Z,5.27
2017-08-18T14:57:59.784Z,4.50
2017-08-18T15:00:27.292Z,4.50
2017-08-18T15:02:54.841Z,4.90
2017-08-18T15:05:22.437Z,4.83
2017-08-18T15:13:55.524Z,4.90
2017-08-18T15:16:23.074Z,5.33
2017-08-18T15:18:50.629Z,4.80
2017-08-18T15:21:18.190Z,5.00
2017-08-18T15:23:45.735Z,5.00
2017-08-18T15:26:13.305Z,5.03
2017-08-18T15:28:40.860Z,4.70
2017-08-18T15:31:08.438Z,4.80
2017-08-18T15:33:35.993Z,4.60
2017-08-18T15:36:03.525Z,5.03
2017-08-18T15:38:31.089Z,5.50
2017-08-18T15:40:58.649Z,4.60
2017-08-18T15:43:26.218Z,4.90
2017-08-18T15:45:53.794Z,5.20
2017-08-18T15:48:22.144Z,5.40
2017-08-18T15:50:49.678Z,5.40
2017-08-18T15:53:17.260Z,4.80
2017-08-18T15:55:44.822Z,5.60
2017-08-18T15:58:12.367Z,5.40
2017-08-18T16:00:39.938Z,4.83
2017-08-18T16:03:07.473Z,5.83
2017-08-18T16:05:35.026Z,5.77
2017-08-18T16:08:04.095Z,5.17
2017-08-18T16:10:31.688Z,5.13
2017-08-18T16:12:59.263Z,5.67
2017-08-18T16:15:26.829Z,4.93
2017-08-18T16:17:55.127Z,5.20
2017-08-18T16:20:22.657Z,5.50
2017-08-18T16:22:50.238Z,5.50
2017-08-18T16:25:17.824Z,4.83
2017-08-18T16:27:45.368Z,5.50
2017-08-18T16:30:13.715Z,5.10
2017-08-18T16:32:41.274Z,5.43
2017-08-18T16:35:08.834Z,5.43
2017-08-18T16:37:36.421Z,6.07
2017-08-18T16:40:04.882Z,5.17
2017-08-18T16:42:32.457Z,6.10
2017-08-18T16:45:00.021Z,4.93
2017-08-18T16:47:27.574Z,5.30
2017-08-18T16:49:56.145Z,5.43
2017-08-18T16:52:23.692Z,6.10
2017-08-18T16:54:51.260Z,5.33
2017-08-18T16:57:18.975Z,6.23
2017-08-18T16:59:47.469Z,6.07
2017-08-18T17:02:15.012Z,6.50
2017-08-18T17:04:43.191Z,5.97
2017-08-18T17:07:11.049Z,6.67
2017-08-18T17:09:38.633Z,5.37
2017-08-18T17:12:06.160Z,6.13
2017-08-18T17:17:28.218Z,5.90
2017-08-18T17:19:55.772Z,6.80
2017-08-18T17:22:23.322Z,6.30
2017-08-18T17:24:50.905Z,7.03
2017-08-18T17:27:18.501Z,6.47
2017-08-18T17:29:46.127Z,5.90
2017-08-18T17:32:13.682Z,6.23
2017-08-18T17:34:41.989Z,6.20
2017-08-18T17:37:09.563Z,6.93
2017-08-18T17:39:37.093Z,6.40
2017-08-18T17:42:06.332Z,6.60
2017-08-18T17:44:33.912Z,6.90
2017-08-18T17:47:01.451Z,6.03
2017-08-18T17:49:29.176Z,6.30
2017-08-18T17:51:56.747Z,6.50
2017-08-18T17:54:25.073Z,6.27
2017-08-18T17:56:52.637Z,6.77
2017-08-18T17:59:20.192Z,6.50
2017-08-18T18:01:47.747Z,5.80
2017-08-18T18:04:15.762Z,7.10
2017-08-18T18:06:43.292Z,5.90
2017-08-18T18:09:11.790Z,6.10
2017-08-18T18:11:39.336Z,7.13
2017-08-18T18:14:06.877Z,6.57
2017-08-18T18:16:34.417Z,6.00
2017-08-18T18:19:01.974Z,6.53
2017-08-18T18:21:29.524Z,6.80
2017-08-18T18:23:57.096Z,3.50
2017-08-18T18:26:24.655Z,4.10
2017-08-18T18:28:52.233Z,2.37
2017-08-18T18:31:19.788Z,2.50
2017-08-18T18:33:47.341Z,1.93
2017-08-18T18:36:14.885Z,2.10
2017-08-18T18:38:42.469Z,1.83
2017-08-18T18:41:10.021Z,2.27
2017-08-18T18:43:37.607Z,2.20
2017-08-18T18:46:05.168Z,1.83
2017-08-18T18:48:32.699Z,2.20
2017-08-18T18:51:00.240Z,2.20
2017-08-18T18:53:28.498Z,2.20
2017-08-18T18:55:59.490Z,1.70
2017-08-18T19:01:03.909Z,2.30
2017-08-18T19:03:32.279Z,1.87
2017-08-18T19:06:00.625Z,1.57
2017-08-18T19:08:28.177Z,2.10
2017-08-18T19:10:55.711Z,2.00
2017-08-18T19:13:24.393Z,1.80
2017-08-18T19:15:51.962Z,2.10
2017-08-18T19:18:20.282Z,2.20
2017-08-18T19:20:47.840Z,2.00
2017-08-18T19:23:15.398Z,2.73
2017-08-18T19:25:42.945Z,2.00
2017-08-18T19:28:11.254Z,3.03
2017-08-18T19:30:38.816Z,2.03
2017-08-18T19:33:06.361Z,2.00
2017-08-18T19:35:34.664Z,1.93
2017-08-18T19:38:02.249Z,2.10
2017-08-18T19:40:29.791Z,2.60
2017-08-18T19:42:57.379Z,1.90
2017-08-18T19:45:24.948Z,1.60
2017-08-18T19:47:52.465Z,2.63
2017-08-18T19:50:20.766Z,2.10
2017-08-18T19:52:48.304Z,1.27
2017-08-18T19:55:16.675Z,1.30
2017-08-18T19:57:44.223Z,1.00
2017-08-18T20:00:11.780Z,1.53
2017-08-18T20:02:39.430Z,1.30
2017-08-18T20:05:06.996Z,1.23
2017-08-18T20:07:34.565Z,1.60
2017-08-18T20:10:02.113Z,1.60
2017-08-18T20:12:29.694Z,1.73
2017-08-18T20:14:57.249Z,1.50
2017-08-18T20:17:25.705Z,2.07
2017-08-18T20:19:53.235Z,1.40
2017-08-18T20:22:20.777Z,1.40
2017-08-18T20:24:48.437Z,1.90
2017-08-18T20:27:16.006Z,1.70
2017-08-18T20:29:43.569Z,1.77
2017-08-18T20:32:11.164Z,1.53
2017-08-18T20:34:38.709Z,1.50
2017-08-18T20:37:06.280Z,1.90
2017-08-18T20:39:33.795Z,1.33
2017-08-18T20:42:01.419Z,1.60
2017-08-18T20:44:28.958Z,1.40
2017-08-18T20:46:56.548Z,1.70
2017-08-18T20:52:01.373Z,1.60
2017-08-18T20:54:28.934Z,2.03
2017-08-18T20:56:56.526Z,1.43
2017-08-18T20:59:24.068Z,2.43
2017-08-18T21:01:52.052Z,1.50
2017-08-18T21:04:19.595Z,1.77
2017-08-18T21:06:47.155Z,1.30
2017-08-18T21:09:15.653Z,1.80
2017-08-18T21:11:43.192Z,1.47
2017-08-18T21:14:10.748Z,1.33
2017-08-18T21:16:39.051Z,1.30
2017-08-18T21:19:06.579Z,1.50
2017-08-18T21:21:34.132Z,1.40
2017-08-18T21:24:03.744Z,1.20
2017-08-18T21:26:31.294Z,1.27
2017-08-18T21:28:58.841Z,1.37
2017-08-18T21:31:26.720Z,1.50
2017-08-18T21:33:54.675Z,1.07
2017-08-18T21:36:22.819Z,1.50
2017-08-18T21:38:51.176Z,1.57
2017-08-18T21:41:18.749Z,1.40
2017-08-18T21:43:46.275Z,1.37
2017-08-18T21:46:14.764Z,1.43
2017-08-18T21:48:42.297Z,1.27
2017-08-18T21:51:09.840Z,1.20
2017-08-18T21:53:37.398Z,1.20
2017-08-18T21:56:04.932Z,1.27
2017-08-18T21:58:33.141Z,1.77
2017-08-18T22:01:00.806Z,1.20
2017-08-18T22:03:28.347Z,1.50
2017-08-18T22:05:55.963Z,1.10
2017-08-18T22:08:24.181Z,1.10
2017-08-18T22:10:51.742Z,1.10
2017-08-18T22:13:20.246Z,1.00
2017-08-18T22:15:49.803Z,1.30
2017-08-18T22:18:18.108Z,1.10
2017-08-18T22:20:45.696Z,1.20
2017-08-18T22:23:13.256Z,1.40
2017-08-18T22:25:40.920Z,1.20
2017-08-18T22:28:09.809Z,1.40
2017-08-18T22:30:37.353Z,0.90
2017-08-18T22:33:04.894Z,1.23
2017-08-18T22:35:33.214Z,1.30
2017-08-18T22:38:00.789Z,1.10
2017-08-18T22:40:28.333Z,1.33
2017-08-18T22:42:55.896Z,1.03
2017-08-18T22:45:23.422Z,1.10
2017-08-18T22:47:50.976Z,1.10
2017-08-18T22:50:18.537Z,1.03
2017-08-18T22:52:46.095Z,1.37
2017-08-18T22:55:13.648Z,1.00
2017-08-18T22:57:41.252Z,1.10
2017-08-18T23:00:08.804Z,1.30
2017-08-18T23:02:36.367Z,1.03
2017-08-18T23:05:03.911Z,1.00
2017-08-18T23:07:31.489Z,1.30
2017-08-18T23:09:59.054Z,1.10
2017-08-18T23:12:26.604Z,1.20
2017-08-18T23:14:54.177Z,0.83
2017-08-18T23:17:21.722Z,1.20
2017-08-18T23:19:49.304Z,1.30
2017-08-18T23:22:16.860Z,1.40
2017-08-18T23:24:44.411Z,1.30
2017-08-18T23:27:11.965Z,1.50
2017-08-18T23:29:39.526Z,1.33
2017-08-18T23:32:07.082Z,1.42
2017-08-18T23:34:34.633Z,1.20
2017-08-18T23:37:02.958Z,1.77
2017-08-18T23:39:30.520Z,1.30
2017-08-18T23:41:58.128Z,1.12
2017-08-18T23:44:25.687Z,1.20
2017-08-18T23:46:53.250Z,1.80
2017-08-18T23:49:20.822Z,1.42
2017-08-18T23:51:48.380Z,1.85
2017-08-18T23:54:15.928Z,1.30
2017-08-18T23:56:43.485Z,1.30
2017-08-18T23:59:11.028Z,1.40
